Smith Bros No. 2 — WDJ7994 — position and weather

sailwx.info

Track history (hours):
 
Tides and Currents Weather Stations Pressure Air Temp Water Temp Dewpoint Dewpoint Depression Visibility Wind Speed Wind Dir Waves Ship Positions

Smith Bros No. 2

Owner: Korth, Todd, Campbell, CA. More information available from US FCC via Universal Licensing System and Coast Guard Vessel Documentation Center.

Last reported at 2018-Feb-22 19:28 UTC. Time now 2018-Feb-23 08:37 UTC.
Position N 37°30' W 122°29'.

Length 15 m.

Type: Fishing. MMSI: 368012090.

Date/timePositionNaut miles runAvg speedWind from/ knotsBaromVisibWave heightAir tempDewpointWater temp
2018-Feb-22 19:28N 37°30' W 122°29'0 0.0
2018-Feb-22 18:55N 37°30' W 122°29'1 1.7
2018-Feb-22 18:30N 37°29' W 122°29'2 4.8
2018-Feb-22 18:00N 37°28' W 122°31'3 5.9
2018-Feb-22 17:28N 37°28' W 122°35'3 6.1
2018-Feb-22 17:00N 37°30' W 122°38'16 6.3
2018-Feb-22 14:28N 37°41' W 122°52'3 6.6
2018-Feb-22 14:00N 37°44' W 122°54'3 6.4
2018-Feb-22 13:30N 37°47' W 122°56'3 6.5
2018-Feb-22 13:00N 37°49' W 122°58'3 6.4
2018-Feb-22 12:30N 37°52' W 123°00'3 6.4
2018-Feb-22 11:59N 37°55' W 123°02'3 6.2
2018-Feb-22 11:30N 37°58' W 123°04'3 6.0
2018-Feb-22 11:00N 38°00' W 123°06'3 6.1
2018-Feb-22 10:30N 38°03' W 123°08'3 6.3
2018-Feb-22 09:58N 38°06' W 123°10'3 6.3
2018-Feb-22 09:30N 38°09' W 123°12'3 6.4
2018-Feb-22 09:00N 38°11' W 123°13'3 6.5
2018-Feb-22 08:30N 38°14' W 123°15'3 6.9
2018-Feb-22 08:00N 38°17' W 123°17'3 6.8
2018-Feb-22 07:30N 38°20' W 123°19'3 6.7
2018-Feb-22 06:59N 38°23' W 123°21'3 6.3
2018-Feb-22 06:30N 38°26' W 123°23'3 6.4
2018-Feb-22 05:57N 38°29' W 123°25'6 7.2
2018-Feb-22 05:06N 38°35' W 123°29'  
Track history (hours):
 
Tides and Currents Weather Stations Pressure Air Temp Water Temp Dewpoint Dewpoint Depression Visibility Wind Speed Wind Dir Waves Ship Positions

Smith Bros No. 2

Owner: Korth, Todd, Campbell, CA. More information available from US FCC via Universal Licensing System and Coast Guard Vessel Documentation Center.

Last reported at 2018-Feb-22 19:28 UTC. Time now 2018-Feb-23 08:37 UTC.
Position N 37°30' W 122°29'.

Length 15 m.

Type: Fishing. MMSI: 368012090.

Date/timePositionNaut miles runAvg speedWind from/ knotsBaromVisibWave heightAir tempDewpointWater temp
2018-Feb-22 19:28N 37°30' W 122°29'0 0.0
2018-Feb-22 18:55N 37°30' W 122°29'1 1.7
2018-Feb-22 18:30N 37°29' W 122°29'2 4.8
2018-Feb-22 18:00N 37°28' W 122°31'3 5.9
2018-Feb-22 17:28N 37°28' W 122°35'3 6.1
2018-Feb-22 17:00N 37°30' W 122°38'16 6.3
2018-Feb-22 14:28N 37°41' W 122°52'3 6.6
2018-Feb-22 14:00N 37°44' W 122°54'3 6.4
2018-Feb-22 13:30N 37°47' W 122°56'3 6.5
2018-Feb-22 13:00N 37°49' W 122°58'3 6.4
2018-Feb-22 12:30N 37°52' W 123°00'3 6.4
2018-Feb-22 11:59N 37°55' W 123°02'3 6.2
2018-Feb-22 11:30N 37°58' W 123°04'3 6.0
2018-Feb-22 11:00N 38°00' W 123°06'3 6.1
2018-Feb-22 10:30N 38°03' W 123°08'3 6.3
2018-Feb-22 09:58N 38°06' W 123°10'3 6.3
2018-Feb-22 09:30N 38°09' W 123°12'3 6.4
2018-Feb-22 09:00N 38°11' W 123°13'3 6.5
2018-Feb-22 08:30N 38°14' W 123°15'3 6.9
2018-Feb-22 08:00N 38°17' W 123°17'3 6.8
2018-Feb-22 07:30N 38°20' W 123°19'3 6.7
2018-Feb-22 06:59N 38°23' W 123°21'3 6.3
2018-Feb-22 06:30N 38°26' W 123°23'3 6.4
2018-Feb-22 05:57N 38°29' W 123°25'6 7.2
2018-Feb-22 05:06N 38°35' W 123°29'  

Dump ship's entire track history